sensor_id;sensor_type;location;lat;lon;timestamp;pressure;altitude;pressure_sealevel;temperature;humidity
3654;BME280;70277;54.302;10.064;2024-03-06T00:01:05;101956.31;;;6.00;73.78
3654;BME280;70277;54.302;10.064;2024-03-06T00:03:33;101958.28;;;5.61;74.68
3654;BME280;70277;54.302;10.064;2024-03-06T00:05:59;101954.56;;;5.92;74.24
3654;BME280;70277;54.302;10.064;2024-03-06T00:08:26;101958.78;;;6.16;73.74
3654;BME280;70277;54.302;10.064;2024-03-06T00:10:52;101966.75;;;6.24;74.04
3654;BME280;70277;54.302;10.064;2024-03-06T00:13:19;101962.06;;;5.82;74.16
3654;BME280;70277;54.302;10.064;2024-03-06T00:15:48;101974.69;;;5.96;74.75
3654;BME280;70277;54.302;10.064;2024-03-06T00:18:14;101966.69;;;5.88;74.58
3654;BME280;70277;54.302;10.064;2024-03-06T00:20:41;101967.00;;;5.93;75.17
3654;BME280;70277;54.302;10.064;2024-03-06T00:23:08;101966.25;;;5.99;74.63
3654;BME280;70277;54.302;10.064;2024-03-06T00:25:35;101978.84;;;5.84;75.77
3654;BME280;70277;54.302;10.064;2024-03-06T00:28:02;101976.09;;;5.62;76.74
3654;BME280;70277;54.302;10.064;2024-03-06T00:30:29;101979.22;;;5.51;77.31
3654;BME280;70277;54.302;10.064;2024-03-06T00:32:55;101976.19;;;5.54;77.95
3654;BME280;70277;54.302;10.064;2024-03-06T00:35:22;101975.03;;;5.19;78.29
3654;BME280;70277;54.302;10.064;2024-03-06T00:37:49;101970.59;;;5.41;77.99
3654;BME280;70277;54.302;10.064;2024-03-06T00:40:15;101973.00;;;5.21;78.44
3654;BME280;70277;54.302;10.064;2024-03-06T00:42:42;101970.59;;;5.41;77.41
3654;BME280;70277;54.302;10.064;2024-03-06T00:45:09;101977.09;;;5.61;76.58
3654;BME280;70277;54.302;10.064;2024-03-06T00:47:35;101980.97;;;5.74;77.26
3654;BME280;70277;54.302;10.064;2024-03-06T00:50:02;101971.19;;;5.51;77.61
3654;BME280;70277;54.302;10.064;2024-03-06T00:52:29;101978.94;;;5.76;76.74
3654;BME280;70277;54.302;10.064;2024-03-06T00:54:55;101979.22;;;5.81;76.41
3654;BME280;70277;54.302;10.064;2024-03-06T00:57:22;101988.38;;;5.86;76.33
3654;BME280;70277;54.302;10.064;2024-03-06T00:59:49;101991.72;;;5.74;76.55
3654;BME280;70277;54.302;10.064;2024-03-06T01:02:15;101992.66;;;5.81;76.93
3654;BME280;70277;54.302;10.064;2024-03-06T01:04:42;101993.47;;;5.66;77.40
3654;BME280;70277;54.302;10.064;2024-03-06T01:07:09;101997.94;;;5.59;77.57
3654;BME280;70277;54.302;10.064;2024-03-06T01:09:35;101995.81;;;5.55;77.87
3654;BME280;70277;54.302;10.064;2024-03-06T01:12:02;102001.00;;;5.71;78.12
3654;BME280;70277;54.302;10.064;2024-03-06T01:14:29;101998.41;;;5.78;77.66
3654;BME280;70277;54.302;10.064;2024-03-06T01:16:57;102007.00;;;6.03;77.65
3654;BME280;70277;54.302;10.064;2024-03-06T01:19:23;102005.63;;;5.92;77.98
3654;BME280;70277;54.302;10.064;2024-03-06T01:21:50;102002.09;;;5.77;77.92
3654;BME280;70277;54.302;10.064;2024-03-06T01:24:16;102007.66;;;6.05;78.45
3654;BME280;70277;54.302;10.064;2024-03-06T01:26:43;102011.38;;;5.89;77.99
3654;BME280;70277;54.302;10.064;2024-03-06T01:29:09;102003.66;;;5.27;79.65
3654;BME280;70277;54.302;10.064;2024-03-06T01:31:36;102011.19;;;5.08;80.63
3654;BME280;70277;54.302;10.064;2024-03-06T01:34:03;102013.88;;;5.08;81.39
3654;BME280;70277;54.302;10.064;2024-03-06T01:36:29;102017.06;;;4.89;80.73
3654;BME280;70277;54.302;10.064;2024-03-06T01:38:56;102010.31;;;4.70;81.19
3654;BME280;70277;54.302;10.064;2024-03-06T01:41:22;102020.19;;;5.15;80.85
3654;BME280;70277;54.302;10.064;2024-03-06T01:43:49;102020.19;;;5.15;81.42
3654;BME280;70277;54.302;10.064;2024-03-06T01:46:16;102017.97;;;5.19;80.80
3654;BME280;70277;54.302;10.064;2024-03-06T01:48:42;102019.09;;;5.24;80.32
3654;BME280;70277;54.302;10.064;2024-03-06T01:51:09;102018.38;;;5.31;80.69
3654;BME280;70277;54.302;10.064;2024-03-06T01:53:36;102038.09;;;5.53;79.49
3654;BME280;70277;54.302;10.064;2024-03-06T01:56:04;102016.16;;;4.96;80.69
3654;BME280;70277;54.302;10.064;2024-03-06T01:58:31;102013.88;;;5.08;81.07
3654;BME280;70277;54.302;10.064;2024-03-06T02:01:00;102013.63;;;5.18;80.36
3654;BME280;70277;54.302;10.064;2024-03-06T02:03:27;102014.56;;;5.25;80.26
3654;BME280;70277;54.302;10.064;2024-03-06T02:05:56;102016.47;;;5.16;79.91
3654;BME280;70277;54.302;10.064;2024-03-06T02:08:24;102014.88;;;5.45;79.75
3654;BME280;70277;54.302;10.064;2024-03-06T02:10:51;102022.97;;;5.22;80.38
3654;BME280;70277;54.302;10.064;2024-03-06T02:13:17;102035.78;;;5.50;79.82
3654;BME280;70277;54.302;10.064;2024-03-06T02:15:44;102016.81;;;5.66;79.13
3654;BME280;70277;54.302;10.064;2024-03-06T02:18:11;102027.19;;;5.84;78.46
3654;BME280;70277;54.302;10.064;2024-03-06T02:20:39;102028.28;;;6.34;78.05
3654;BME280;70277;54.302;10.064;2024-03-06T02:23:06;102039.50;;;6.23;78.04
3654;BME280;70277;54.302;10.064;2024-03-06T02:25:34;102020.72;;;6.08;77.02
3654;BME280;70277;54.302;10.064;2024-03-06T02:28:00;102025.72;;;5.96;77.99
3654;BME280;70277;54.302;10.064;2024-03-06T02:30:27;102015.34;;;5.93;77.59
3654;BME280;70277;54.302;10.064;2024-03-06T02:32:54;102023.78;;;5.75;79.01
3654;BME280;70277;54.302;10.064;2024-03-06T02:35:20;102025.06;;;5.64;79.12
3654;BME280;70277;54.302;10.064;2024-03-06T02:37:47;102023.03;;;5.81;77.96
3654;BME280;70277;54.302;10.064;2024-03-06T02:40:14;102021.53;;;5.79;79.11
3654;BME280;70277;54.302;10.064;2024-03-06T02:42:40;102028.03;;;5.99;78.31
3654;BME280;70277;54.302;10.064;2024-03-06T02:45:07;102020.63;;;5.86;78.86
3654;BME280;70277;54.302;10.064;2024-03-06T02:47:35;102018.69;;;5.80;78.13
3654;BME280;70277;54.302;10.064;2024-03-06T02:50:01;102027.38;;;6.12;77.53
3654;BME280;70277;54.302;10.064;2024-03-06T02:52:28;102018.50;;;5.97;77.65
3654;BME280;70277;54.302;10.064;2024-03-06T02:54:55;102022.56;;;5.92;77.76
3654;BME280;70277;54.302;10.064;2024-03-06T02:57:22;102020.72;;;5.48;78.71
3654;BME280;70277;54.302;10.064;2024-03-06T02:59:49;102021.38;;;5.65;78.49
3654;BME280;70277;54.302;10.064;2024-03-06T03:02:15;102024.88;;;5.81;78.80
3654;BME280;70277;54.302;10.064;2024-03-06T03:04:42;102027.75;;;5.79;78.08
3654;BME280;70277;54.302;10.064;2024-03-06T03:07:09;102029.28;;;5.44;78.37
3654;BME280;70277;54.302;10.064;2024-03-06T03:09:36;102023.38;;;5.34;79.14
3654;BME280;70277;54.302;10.064;2024-03-06T03:12:05;102032.69;;;5.23;80.07
3654;BME280;70277;54.302;10.064;2024-03-06T03:14:31;102024.69;;;5.67;78.56
3654;BME280;70277;54.302;10.064;2024-03-06T03:17:00;102021.16;;;5.82;78.57
3654;BME280;70277;54.302;10.064;2024-03-06T03:19:27;102027.28;;;5.76;77.92
3654;BME280;70277;54.302;10.064;2024-03-06T03:21:53;102025.78;;;5.73;77.92
3654;BME280;70277;54.302;10.064;2024-03-06T03:24:20;102023.47;;;5.55;78.07
3654;BME280;70277;54.302;10.064;2024-03-06T03:26:48;102023.47;;;5.70;78.79
3654;BME280;70277;54.302;10.064;2024-03-06T03:29:14;102027.72;;;5.50;78.91
3654;BME280;70277;54.302;10.064;2024-03-06T03:31:41;102030.16;;;5.44;78.83
3654;BME280;70277;54.302;10.064;2024-03-06T03:34:09;102043.19;;;5.33;79.21
3654;BME280;70277;54.302;10.064;2024-03-06T03:36:42;102051.44;;;5.61;78.23
3654;BME280;70277;54.302;10.064;2024-03-06T03:39:10;102052.56;;;5.66;78.59
3654;BME280;70277;54.302;10.064;2024-03-06T03:41:47;102047.28;;;5.88;78.34
3654;BME280;70277;54.302;10.064;2024-03-06T03:44:14;102051.53;;;6.27;77.27
3654;BME280;70277;54.302;10.064;2024-03-06T03:46:42;102055.91;;;6.28;76.69
3654;BME280;70277;54.302;10.064;2024-03-06T03:49:09;102053.78;;;6.08;76.34
3654;BME280;70277;54.302;10.064;2024-03-06T03:51:36;102051.94;;;6.09;76.48
3654;BME280;70277;54.302;10.064;2024-03-06T03:54:03;102047.34;;;5.50;77.97
3654;BME280;70277;54.302;10.064;2024-03-06T03:56:31;102053.28;;;5.45;78.14
3654;BME280;70277;54.302;10.064;2024-03-06T03:58:58;102044.47;;;5.37;78.33
3654;BME280;70277;54.302;10.064;2024-03-06T04:01:25;102041.75;;;5.75;77.76
3654;BME280;70277;54.302;10.064;2024-03-06T04:03:52;102047.56;;;5.78;77.60
3654;BME280;70277;54.302;10.064;2024-03-06T04:06:18;102054.53;;;6.02;76.77
3654;BME280;70277;54.302;10.064;2024-03-06T04:08:45;102054.13;;;5.61;78.39
3654;BME280;70277;54.302;10.064;2024-03-06T04:11:12;102052.66;;;5.88;77.29
3654;BME280;70277;54.302;10.064;2024-03-06T04:13:39;102056.38;;;5.57;78.58
3654;BME280;70277;54.302;10.064;2024-03-06T04:16:06;102051.16;;;5.70;77.58
3654;BME280;70277;54.302;10.064;2024-03-06T04:18:33;102051.00;;;5.57;78.09
3654;BME280;70277;54.302;10.064;2024-03-06T04:21:08;102051.84;;;6.02;77.09
3654;BME280;70277;54.302;10.064;2024-03-06T04:23:36;102061.84;;;5.79;77.29
3654;BME280;70277;54.302;10.064;2024-03-06T04:26:03;102056.38;;;5.87;77.22
3654;BME280;70277;54.302;10.064;2024-03-06T04:28:30;102057.94;;;5.66;78.01
3654;BME280;70277;54.302;10.064;2024-03-06T04:30:56;102061.38;;;5.90;77.39
3654;BME280;70277;54.302;10.064;2024-03-06T04:33:23;102062.88;;;6.07;77.05
3654;BME280;70277;54.302;10.064;2024-03-06T04:35:49;102053.78;;;5.79;77.08
3654;BME280;70277;54.302;10.064;2024-03-06T04:38:16;102060.81;;;5.65;78.01
3654;BME280;70277;54.302;10.064;2024-03-06T04:40:42;102062.56;;;5.87;77.80
3654;BME280;70277;54.302;10.064;2024-03-06T04:43:10;102062.41;;;5.89;77.03
3654;BME280;70277;54.302;10.064;2024-03-06T04:45:37;102069.81;;;6.17;76.51
3654;BME280;70277;54.302;10.064;2024-03-06T04:48:04;102082.34;;;6.09;76.23
3654;BME280;70277;54.302;10.064;2024-03-06T04:50:30;102072.22;;;6.11;76.85
3654;BME280;70277;54.302;10.064;2024-03-06T04:52:57;102082.97;;;5.82;77.01
3654;BME280;70277;54.302;10.064;2024-03-06T04:55:24;102089.94;;;6.21;76.87
3654;BME280;70277;54.302;10.064;2024-03-06T04:57:52;102090.06;;;5.98;76.87
3654;BME280;70277;54.302;10.064;2024-03-06T05:00:22;102084.53;;;5.91;76.87
3654;BME280;70277;54.302;10.064;2024-03-06T05:02:48;102086.38;;;5.90;76.80
3654;BME280;70277;54.302;10.064;2024-03-06T05:05:33;102088.69;;;5.64;78.19
3654;BME280;70277;54.302;10.064;2024-03-06T05:08:17;102089.28;;;5.89;77.66
3654;BME280;70277;54.302;10.064;2024-03-06T05:11:01;102089.91;;;5.91;77.24
3654;BME280;70277;54.302;10.064;2024-03-06T05:13:46;102098.06;;;5.83;77.92
3654;BME280;70277;54.302;10.064;2024-03-06T05:16:30;102100.16;;;6.10;76.59
3654;BME280;70277;54.302;10.064;2024-03-06T05:19:14;102107.47;;;6.02;76.38
3654;BME280;70277;54.302;10.064;2024-03-06T05:21:58;102096.94;;;5.62;77.69
3654;BME280;70277;54.302;10.064;2024-03-06T05:24:43;102118.72;;;5.82;77.63
3654;BME280;70277;54.302;10.064;2024-03-06T05:27:27;102112.75;;;6.10;76.73
3654;BME280;70277;54.302;10.064;2024-03-06T05:30:11;102120.22;;;6.44;76.68
3654;BME280;70277;54.302;10.064;2024-03-06T05:32:56;102125.50;;;6.52;76.16
3654;BME280;70277;54.302;10.064;2024-03-06T05:35:40;102131.63;;;6.46;75.91
3654;BME280;70277;54.302;10.064;2024-03-06T05:38:24;102133.09;;;6.64;75.19
3654;BME280;70277;54.302;10.064;2024-03-06T05:41:08;102133.66;;;6.44;75.74
3654;BME280;70277;54.302;10.064;2024-03-06T05:43:52;102138.38;;;6.72;75.28
3654;BME280;70277;54.302;10.064;2024-03-06T05:46:36;102132.84;;;6.80;75.06
3654;BME280;70277;54.302;10.064;2024-03-06T05:49:20;102136.69;;;6.71;74.95
3654;BME280;70277;54.302;10.064;2024-03-06T05:52:04;102141.25;;;6.55;75.78
3654;BME280;70277;54.302;10.064;2024-03-06T05:54:48;102137.56;;;6.27;76.22
3654;BME280;70277;54.302;10.064;2024-03-06T05:57:32;102152.25;;;6.09;76.58
3654;BME280;70277;54.302;10.064;2024-03-06T06:00:16;102152.25;;;6.09;76.82
3654;BME280;70277;54.302;10.064;2024-03-06T06:02:44;102145.53;;;6.05;77.25
3654;BME280;70277;54.302;10.064;2024-03-06T06:05:12;102156.00;;;6.15;76.76
3654;BME280;70277;54.302;10.064;2024-03-06T06:07:50;102162.03;;;6.02;76.94
3654;BME280;70277;54.302;10.064;2024-03-06T06:10:17;102154.72;;;6.11;77.33
3654;BME280;70277;54.302;10.064;2024-03-06T06:12:47;102159.38;;;6.17;76.99
3654;BME280;70277;54.302;10.064;2024-03-06T06:15:14;102162.88;;;6.03;77.76
3654;BME280;70277;54.302;10.064;2024-03-06T06:17:42;102165.19;;;6.06;77.42
3654;BME280;70277;54.302;10.064;2024-03-06T06:20:12;102175.31;;;6.04;77.34
3654;BME280;70277;54.302;10.064;2024-03-06T06:22:42;102180.94;;;6.38;76.64
3654;BME280;70277;54.302;10.064;2024-03-06T06:25:09;102171.69;;;6.11;76.98
3654;BME280;70277;54.302;10.064;2024-03-06T06:27:36;102174.00;;;6.14;77.18
3654;BME280;70277;54.302;10.064;2024-03-06T06:30:04;102174.72;;;5.70;78.22
3654;BME280;70277;54.302;10.064;2024-03-06T06:32:32;102187.44;;;6.29;77.12
3654;BME280;70277;54.302;10.064;2024-03-06T06:34:59;102177.25;;;6.54;76.80
3654;BME280;70277;54.302;10.064;2024-03-06T06:37:26;102182.63;;;6.54;76.37
3654;BME280;70277;54.302;10.064;2024-03-06T06:39:53;102195.25;;;6.69;75.50
3654;BME280;70277;54.302;10.064;2024-03-06T06:42:19;102187.38;;;6.37;76.07
3654;BME280;70277;54.302;10.064;2024-03-06T06:44:45;102195.50;;;6.59;76.11
3654;BME280;70277;54.302;10.064;2024-03-06T06:47:12;102195.25;;;6.69;75.57
3654;BME280;70277;54.302;10.064;2024-03-06T06:49:39;102199.53;;;6.48;75.73
3654;BME280;70277;54.302;10.064;2024-03-06T06:52:05;102202.09;;;6.56;75.19
3654;BME280;70277;54.302;10.064;2024-03-06T06:54:32;102197.56;;;6.72;75.78
3654;BME280;70277;54.302;10.064;2024-03-06T06:56:58;102204.06;;;6.63;75.58
3654;BME280;70277;54.302;10.064;2024-03-06T06:59:25;102214.53;;;6.57;75.50
3654;BME280;70277;54.302;10.064;2024-03-06T07:01:51;102212.81;;;6.86;75.42
3654;BME280;70277;54.302;10.064;2024-03-06T07:04:18;102215.41;;;6.94;75.59
3654;BME280;70277;54.302;10.064;2024-03-06T07:06:46;102219.31;;;6.92;75.34
3654;BME280;70277;54.302;10.064;2024-03-06T07:09:13;102223.91;;;7.13;74.55
3654;BME280;70277;54.302;10.064;2024-03-06T07:11:42;102230.41;;;7.03;75.02
3654;BME280;70277;54.302;10.064;2024-03-06T07:14:12;102227.09;;;7.01;75.00
3654;BME280;70277;54.302;10.064;2024-03-06T07:16:45;102233.00;;;7.12;74.82
3654;BME280;70277;54.302;10.064;2024-03-06T07:19:12;102232.41;;;7.31;74.91
3654;BME280;70277;54.302;10.064;2024-03-06T07:21:39;102249.47;;;7.38;74.53
3654;BME280;70277;54.302;10.064;2024-03-06T07:24:05;102245.28;;;7.36;74.01
3654;BME280;70277;54.302;10.064;2024-03-06T07:26:33;102251.44;;;7.51;74.52
3654;BME280;70277;54.302;10.064;2024-03-06T07:29:00;102252.66;;;7.27;73.54
3654;BME280;70277;54.302;10.064;2024-03-06T07:31:28;102254.47;;;7.41;73.50
3654;BME280;70277;54.302;10.064;2024-03-06T07:33:54;102258.53;;;7.52;73.73
3654;BME280;70277;54.302;10.064;2024-03-06T07:36:21;102268.59;;;7.43;72.81
3654;BME280;70277;54.302;10.064;2024-03-06T07:38:48;102269.06;;;7.32;73.15
3654;BME280;70277;54.302;10.064;2024-03-06T07:41:14;102266.81;;;6.99;74.12
3654;BME280;70277;54.302;10.064;2024-03-06T07:43:41;102274.16;;;6.91;73.81
3654;BME280;70277;54.302;10.064;2024-03-06T07:46:08;102265.16;;;6.98;74.21
3654;BME280;70277;54.302;10.064;2024-03-06T07:48:37;102271.69;;;7.25;73.39
3654;BME280;70277;54.302;10.064;2024-03-06T07:51:04;102273.91;;;7.37;72.88
3654;BME280;70277;54.302;10.064;2024-03-06T07:53:31;102271.47;;;7.42;72.83
3654;BME280;70277;54.302;10.064;2024-03-06T07:55:57;102275.72;;;7.72;72.17
3654;BME280;70277;54.302;10.064;2024-03-06T07:58:24;102280.28;;;7.93;71.57
3654;BME280;70277;54.302;10.064;2024-03-06T08:00:52;102285.53;;;7.80;71.92
3654;BME280;70277;54.302;10.064;2024-03-06T08:03:22;102287.34;;;7.73;71.75
3654;BME280;70277;54.302;10.064;2024-03-06T08:05:52;102290.75;;;7.60;71.65
3654;BME280;70277;54.302;10.064;2024-03-06T08:08:20;102285.03;;;7.70;72.24
3654;BME280;70277;54.302;10.064;2024-03-06T08:10:47;102292.06;;;7.71;72.01
3654;BME280;70277;54.302;10.064;2024-03-06T08:13:14;102288.50;;;7.85;72.36
3654;BME280;70277;54.302;10.064;2024-03-06T08:15:41;102294.00;;;7.77;71.72
3654;BME280;70277;54.302;10.064;2024-03-06T08:18:12;102298.31;;;7.93;71.06
3654;BME280;70277;54.302;10.064;2024-03-06T08:20:39;102308.25;;;7.71;71.63
3654;BME280;70277;54.302;10.064;2024-03-06T08:23:07;102305.31;;;7.87;71.71
3654;BME280;70277;54.302;10.064;2024-03-06T08:25:33;102312.41;;;7.73;71.81
3654;BME280;70277;54.302;10.064;2024-03-06T08:28:00;102310.00;;;7.79;71.41
3654;BME280;70277;54.302;10.064;2024-03-06T08:30:27;102310.56;;;7.95;71.39
3654;BME280;70277;54.302;10.064;2024-03-06T08:32:53;102317.75;;;7.88;70.99
3654;BME280;70277;54.302;10.064;2024-03-06T08:35:20;102319.69;;;7.94;70.80
3654;BME280;70277;54.302;10.064;2024-03-06T08:37:48;102317.59;;;7.53;71.77
3654;BME280;70277;54.302;10.064;2024-03-06T08:40:15;102327.19;;;7.41;71.67
3654;BME280;70277;54.302;10.064;2024-03-06T08:42:42;102334.69;;;7.61;72.25
3654;BME280;70277;54.302;10.064;2024-03-06T08:45:09;102333.75;;;7.53;71.25
3654;BME280;70277;54.302;10.064;2024-03-06T08:47:36;102336.94;;;7.42;72.16
3654;BME280;70277;54.302;10.064;2024-03-06T08:50:03;102329.13;;;7.47;71.39
3654;BME280;70277;54.302;10.064;2024-03-06T08:52:30;102341.75;;;7.83;71.14
3654;BME280;70277;54.302;10.064;2024-03-06T08:55:01;102344.03;;;7.65;71.13
3654;BME280;70277;54.302;10.064;2024-03-06T08:57:30;102345.28;;;7.84;71.85
3654;BME280;70277;54.302;10.064;2024-03-06T08:59:58;102343.56;;;7.97;71.33
3654;BME280;70277;54.302;10.064;2024-03-06T09:02:25;102355.81;;;8.00;71.10
3654;BME280;70277;54.302;10.064;2024-03-06T09:04:52;102342.41;;;7.85;71.04
3654;BME280;70277;54.302;10.064;2024-03-06T09:07:19;102347.28;;;7.75;70.98
3654;BME280;70277;54.302;10.064;2024-03-06T09:09:50;102356.53;;;7.87;70.21
3654;BME280;70277;54.302;10.064;2024-03-06T09:12:18;102356.75;;;7.71;70.93
3654;BME280;70277;54.302;10.064;2024-03-06T09:14:45;102358.47;;;7.93;69.18
3654;BME280;70277;54.302;10.064;2024-03-06T09:17:11;102360.75;;;8.18;68.90
3654;BME280;70277;54.302;10.064;2024-03-06T09:19:41;102363.13;;;8.06;69.90
3654;BME280;70277;54.302;10.064;2024-03-06T09:22:25;102366.09;;;7.90;70.29
3654;BME280;70277;54.302;10.064;2024-03-06T09:24:52;102362.28;;;8.27;68.32
3654;BME280;70277;54.302;10.064;2024-03-06T09:27:18;102381.94;;;8.00;64.77
3654;BME280;70277;54.302;10.064;2024-03-06T09:29:45;102366.94;;;7.90;64.73
3654;BME280;70277;54.302;10.064;2024-03-06T09:32:11;102371.50;;;7.90;63.81
3654;BME280;70277;54.302;10.064;2024-03-06T09:34:45;102370.41;;;8.06;64.35
3654;BME280;70277;54.302;10.064;2024-03-06T09:37:11;102371.16;;;8.00;63.35
3654;BME280;70277;54.302;10.064;2024-03-06T09:39:38;102378.47;;;8.27;62.99
3654;BME280;70277;54.302;10.064;2024-03-06T09:42:05;102375.91;;;8.19;64.21
3654;BME280;70277;54.302;10.064;2024-03-06T09:44:31;102385.41;;;8.15;65.18
3654;BME280;70277;54.302;10.064;2024-03-06T09:46:59;102384.38;;;7.94;65.44
3654;BME280;70277;54.302;10.064;2024-03-06T09:49:28;102380.09;;;7.64;66.03
3654;BME280;70277;54.302;10.064;2024-03-06T09:51:56;102391.22;;;7.75;65.51
3654;BME280;70277;54.302;10.064;2024-03-06T09:54:25;102396.88;;;7.81;66.30
3654;BME280;70277;54.302;10.064;2024-03-06T09:56:53;102401.72;;;7.19;67.22
3654;BME280;70277;54.302;10.064;2024-03-06T09:59:22;102392.81;;;7.70;66.20
3654;BME280;70277;54.302;10.064;2024-03-06T10:01:56;102397.44;;;7.76;65.73
3654;BME280;70277;54.302;10.064;2024-03-06T10:04:25;102397.19;;;7.71;65.87
3654;BME280;70277;54.302;10.064;2024-03-06T10:07:00;102399.88;;;7.71;67.83
3654;BME280;70277;54.302;10.064;2024-03-06T10:09:29;102405.19;;;7.64;67.38
3654;BME280;70277;54.302;10.064;2024-03-06T10:11:57;102416.78;;;7.65;65.97
3654;BME280;70277;54.302;10.064;2024-03-06T10:14:29;102415.88;;;7.58;67.37
3654;BME280;70277;54.302;10.064;2024-03-06T10:16:58;102422.47;;;7.55;67.82
3654;BME280;70277;54.302;10.064;2024-03-06T10:19:28;102422.41;;;7.48;67.65
3654;BME280;70277;54.302;10.064;2024-03-06T10:21:56;102420.19;;;7.07;67.18
3654;BME280;70277;54.302;10.064;2024-03-06T10:24:28;102423.41;;;7.33;66.70
3654;BME280;70277;54.302;10.064;2024-03-06T10:26:55;102416.44;;;7.53;67.20
3654;BME280;70277;54.302;10.064;2024-03-06T10:29:26;102420.06;;;7.96;65.16
3654;BME280;70277;54.302;10.064;2024-03-06T10:31:55;102425.97;;;7.85;65.40
3654;BME280;70277;54.302;10.064;2024-03-06T10:34:25;102433.16;;;7.78;65.73
3654;BME280;70277;54.302;10.064;2024-03-06T10:36:59;102431.63;;;7.90;65.47
3654;BME280;70277;54.302;10.064;2024-03-06T10:39:26;102429.78;;;8.12;65.42
3654;BME280;70277;54.302;10.064;2024-03-06T10:41:54;102433.88;;;7.87;64.85
3654;BME280;70277;54.302;10.064;2024-03-06T10:44:23;102436.94;;;7.69;64.74
3654;BME280;70277;54.302;10.064;2024-03-06T10:46:58;102443.66;;;7.43;64.87
3654;BME280;70277;54.302;10.064;2024-03-06T10:49:28;102439.28;;;7.72;64.44
3654;BME280;70277;54.302;10.064;2024-03-06T10:51:58;102440.25;;;7.86;65.23
3654;BME280;70277;54.302;10.064;2024-03-06T10:54:29;102440.72;;;7.89;64.59
3654;BME280;70277;54.302;10.064;2024-03-06T10:56:57;102435.56;;;7.58;64.21
3654;BME280;70277;54.302;10.064;2024-03-06T10:59:27;102434.16;;;7.62;64.48
3654;BME280;70277;54.302;10.064;2024-03-06T11:01:55;102446.78;;;7.77;64.83
3654;BME280;70277;54.302;10.064;2024-03-06T11:04:26;102443.38;;;7.68;64.80
3654;BME280;70277;54.302;10.064;2024-03-06T11:06:57;102447.25;;;7.80;64.30
3654;BME280;70277;54.302;10.064;2024-03-06T11:09:32;102446.16;;;7.60;65.71
3654;BME280;70277;54.302;10.064;2024-03-06T11:12:02;102449.97;;;7.50;65.86
3654;BME280;70277;54.302;10.064;2024-03-06T11:14:31;102443.22;;;7.55;65.47
3654;BME280;70277;54.302;10.064;2024-03-06T11:17:00;102441.88;;;7.50;65.59
3654;BME280;70277;54.302;10.064;2024-03-06T11:19:32;102446.53;;;7.57;65.71
3654;BME280;70277;54.302;10.064;2024-03-06T11:21:58;102458.41;;;7.77;65.60
3654;BME280;70277;54.302;10.064;2024-03-06T11:24:32;102447.34;;;7.57;65.38
3654;BME280;70277;54.302;10.064;2024-03-06T11:27:04;102461.41;;;7.52;65.58
3654;BME280;70277;54.302;10.064;2024-03-06T11:30:08;102456.47;;;7.71;65.63
3654;BME280;70277;54.302;10.064;2024-03-06T11:32:59;102471.28;;;7.45;65.69
3654;BME280;70277;54.302;10.064;2024-03-06T11:35:28;102472.09;;;7.31;66.07
3654;BME280;70277;54.302;10.064;2024-03-06T11:37:55;102470.03;;;7.48;65.91
3654;BME280;70277;54.302;10.064;2024-03-06T11:40:25;102475.63;;;7.46;66.56
3654;BME280;70277;54.302;10.064;2024-03-06T11:42:52;102472.25;;;7.74;65.39
3654;BME280;70277;54.302;10.064;2024-03-06T11:45:19;102473.09;;;7.60;64.89
3654;BME280;70277;54.302;10.064;2024-03-06T11:47:58;102474.50;;;7.56;66.08
3654;BME280;70277;54.302;10.064;2024-03-06T11:50:26;102466.59;;;7.39;65.81
3654;BME280;70277;54.302;10.064;2024-03-06T11:52:54;102478.03;;;7.56;64.43
3654;BME280;70277;54.302;10.064;2024-03-06T11:55:24;102465.88;;;7.75;64.43
3654;BME280;70277;54.302;10.064;2024-03-06T11:57:53;102467.19;;;8.01;63.45
3654;BME280;70277;54.302;10.064;2024-03-06T12:00:23;102481.63;;;8.29;63.42
3654;BME280;70277;54.302;10.064;2024-03-06T12:02:50;102478.34;;;7.97;64.11
3654;BME280;70277;54.302;10.064;2024-03-06T12:05:20;102481.03;;;8.34;64.21
3654;BME280;70277;54.302;10.064;2024-03-06T12:07:50;102472.41;;;8.02;63.75
3654;BME280;70277;54.302;10.064;2024-03-06T12:10:17;102473.53;;;8.29;64.24
3654;BME280;70277;54.302;10.064;2024-03-06T12:12:44;102480.88;;;7.99;63.41
3654;BME280;70277;54.302;10.064;2024-03-06T12:15:12;102480.34;;;7.59;63.71
3654;BME280;70277;54.302;10.064;2024-03-06T12:17:48;102478.84;;;7.86;64.28
3654;BME280;70277;54.302;10.064;2024-03-06T12:20:18;102479.38;;;7.96;65.52
3654;BME280;70277;54.302;10.064;2024-03-06T12:22:48;102477.19;;;7.56;65.49
3654;BME280;70277;54.302;10.064;2024-03-06T12:25:19;102478.03;;;7.56;63.71
3654;BME280;70277;54.302;10.064;2024-03-06T12:27:47;102476.03;;;7.94;64.02
3654;BME280;70277;54.302;10.064;2024-03-06T12:30:17;102473.94;;;7.90;64.73
3654;BME280;70277;54.302;10.064;2024-03-06T12:32:44;102475.13;;;7.87;63.54
3654;BME280;70277;54.302;10.064;2024-03-06T12:35:11;102485.53;;;7.90;63.75
3654;BME280;70277;54.302;10.064;2024-03-06T12:37:37;102484.81;;;7.67;63.29
3654;BME280;70277;54.302;10.064;2024-03-06T12:40:05;102479.22;;;7.53;65.18
3654;BME280;70277;54.302;10.064;2024-03-06T12:42:32;102481.81;;;7.91;64.14
3654;BME280;70277;54.302;10.064;2024-03-06T12:44:59;102467.13;;;7.94;62.75
3654;BME280;70277;54.302;10.064;2024-03-06T12:47:25;102482.38;;;8.02;63.81
3654;BME280;70277;54.302;10.064;2024-03-06T12:49:53;102478.75;;;8.16;62.38
3654;BME280;70277;54.302;10.064;2024-03-06T12:52:20;102468.94;;;7.72;63.23
3654;BME280;70277;54.302;10.064;2024-03-06T12:54:46;102470.06;;;8.14;62.90
3654;BME280;70277;54.302;10.064;2024-03-06T12:57:13;102472.94;;;8.12;62.27
3654;BME280;70277;54.302;10.064;2024-03-06T12:59:39;102483.88;;;7.60;62.69
3654;BME280;70277;54.302;10.064;2024-03-06T13:02:06;102481.88;;;7.98;62.42
3654;BME280;70277;54.302;10.064;2024-03-06T13:04:33;102475.69;;;7.68;63.88
3654;BME280;70277;54.302;10.064;2024-03-06T13:07:00;102480.22;;;7.97;62.75
3654;BME280;70277;54.302;10.064;2024-03-06T13:09:26;102485.72;;;7.74;62.07